Time;durP1;ratioP1;P1;durP2;ratioP2;P2;SDS_P1;SDS_P2;PMS_P1;PMS_P2;Temp;Humidity;BMP_temperature;BMP_pressure;BME280_temperature;BME280_humidity;BME280_pressure;Samples;Min_cycle;Max_cycle;Signal;HPM_P1;HPM_P2
2023/07/02 00:02:08;;;;;;;4.30;2.37;;;;;;;;;;5013153;28;20217;-73
2023/07/02 00:05:12;;;;;;;2.53;2.33;;;;;;;;;;5013371;28;20663;-73
2023/07/02 00:08:16;;;;;;;7.60;2.20;;;;;;;;;;5013470;28;20177;-73
2023/07/02 00:11:20;;;;;;;3.50;2.67;;;;;;;;;;5013615;28;20181;-73
2023/07/02 00:14:24;;;;;;;4.37;2.53;;;;;;;;;;5013400;28;20177;-73
2023/07/02 00:17:29;;;;;;;4.77;2.70;;;;;;;;;;5011880;28;20182;-73
2023/07/02 00:20:37;;;;;;;4.50;2.30;;;;;;;;;;5013889;28;20509;-73
2023/07/02 00:23:41;;;;;;;3.20;2.23;;;;;;;;;;5014140;28;20186;-73
2023/07/02 00:26:45;;;;;;;2.60;2.17;;;;;;;;;;5013643;28;20213;-73
2023/07/02 00:29:52;;;;;;;3.97;2.30;;;;;;;;;;5013818;28;20624;-73
2023/07/02 00:32:56;;;;;;;2.67;2.10;;;;;;;;;;5012361;28;20217;-73
2023/07/02 00:36:00;;;;;;;2.90;2.33;;;;;;;;;;5013349;28;20540;-73
2023/07/02 00:39:04;;;;;;;2.63;2.40;;;;;;;;;;5013332;28;20178;-72
2023/07/02 00:42:11;;;;;;;3.27;2.37;;;;;;;;;;5001446;28;20221;-72
2023/07/02 00:45:15;;;;;;;3.23;2.57;;;;;;;;;;5012540;28;20181;-73
2023/07/02 00:48:19;;;;;;;3.47;2.63;;;;;;;;;;5013547;28;20178;-73
2023/07/02 00:51:25;;;;;;;2.83;2.47;;;;;;;;;;5012828;28;20217;-73
2023/07/02 00:54:30;;;;;;;4.60;2.43;;;;;;;;;;5001535;28;20621;-73
2023/07/02 00:57:35;;;;;;;4.33;2.00;;;;;;;;;;5012260;28;20198;-72
2023/07/02 01:00:39;;;;;;;4.17;2.30;;;;;;;;;;5012272;28;20197;-73
2023/07/02 01:04:12;;;;;;;5.47;2.37;;;;;;;;;;5013223;28;20185;-73
2023/07/02 01:07:16;;;;;;;3.10;2.33;;;;;;;;;;5013176;28;20537;-73
2023/07/02 01:10:20;;;;;;;3.20;2.20;;;;;;;;;;5013127;28;20173;-72
2023/07/02 01:13:25;;;;;;;2.30;1.90;;;;;;;;;;5000708;28;20221;-73
2023/07/02 01:16:32;;;;;;;4.40;2.07;;;;;;;;;;5012238;28;20189;-73
2023/07/02 01:19:50;;;;;;;3.90;2.17;;;;;;;;;;5012048;28;20185;-72
2023/07/02 01:22:55;;;;;;;2.57;2.03;;;;;;;;;;5011922;28;20213;-73
2023/07/02 01:25:59;;;;;;;3.30;2.30;;;;;;;;;;5012932;28;20553;-73
2023/07/02 01:29:17;;;;;;;4.37;2.40;;;;;;;;;;5014396;28;20182;-73
2023/07/02 01:32:21;;;;;;;2.20;1.90;;;;;;;;;;5015435;28;20222;-73
2023/07/02 01:35:25;;;;;;;4.37;2.20;;;;;;;;;;5016407;28;20248;-73
2023/07/02 01:38:29;;;;;;;2.20;2.00;;;;;;;;;;5016068;28;20181;-73
2023/07/02 01:41:41;;;;;;;2.63;2.07;;;;;;;;;;5004132;28;20217;-73
2023/07/02 01:44:49;;;;;;;3.27;2.20;;;;;;;;;;5015915;28;20193;-73
2023/07/02 01:47:53;;;;;;;5.73;2.20;;;;;;;;;;5015169;28;20205;-73
2023/07/02 01:50:57;;;;;;;2.93;2.20;;;;;;;;;;5004062;28;20178;-73
2023/07/02 01:54:01;;;;;;;3.17;2.33;;;;;;;;;;5016052;28;20181;-73
2023/07/02 01:57:05;;;;;;;2.97;2.00;;;;;;;;;;5004193;28;20177;-73
2023/07/02 02:00:10;;;;;;;3.23;2.20;;;;;;;;;;5015108;28;20181;-73
2023/07/02 02:03:23;;;;;;;3.40;2.27;;;;;;;;;;5015593;28;20696;-73
2023/07/02 02:06:27;;;;;;;3.70;2.27;;;;;;;;;;5015440;28;20210;-73
2023/07/02 02:09:32;;;;;;;8.77;2.60;;;;;;;;;;5015863;28;20177;-73
2023/07/02 02:12:36;;;;;;;4.73;2.97;;;;;;;;;;5014608;28;20217;-74
2023/07/02 02:15:44;;;;;;;3.13;2.63;;;;;;;;;;5014620;28;20213;-73
2023/07/02 02:18:51;;;;;;;4.17;2.83;;;;;;;;;;5014837;28;20178;-73
2023/07/02 02:21:55;;;;;;;3.40;2.30;;;;;;;;;;5015437;28;20221;-73
2023/07/02 02:24:59;;;;;;;3.63;2.80;;;;;;;;;;5015548;28;20513;-73
2023/07/02 02:28:04;;;;;;;5.23;2.70;;;;;;;;;;5014567;28;20202;-73
2023/07/02 02:31:08;;;;;;;2.93;2.63;;;;;;;;;;5014465;28;20182;-73
2023/07/02 02:34:13;;;;;;;3.30;2.30;;;;;;;;;;5003363;28;20186;-73
2023/07/02 02:37:18;;;;;;;4.60;2.73;;;;;;;;;;5029347;22;20245;-72
2023/07/02 02:40:22;;;;;;;3.33;2.40;;;;;;;;;;5014483;28;20178;-73
2023/07/02 02:43:26;;;;;;;4.07;2.63;;;;;;;;;;4983721;28;20632;-73
2023/07/02 02:46:31;;;;;;;3.10;2.77;;;;;;;;;;4972662;28;20206;-73
2023/07/02 02:49:38;;;;;;;3.13;2.50;;;;;;;;;;4995603;28;20522;-73
2023/07/02 02:52:42;;;;;;;4.17;2.67;;;;;;;;;;5005816;28;20225;-72
2023/07/02 02:55:46;;;;;;;4.70;2.83;;;;;;;;;;5005818;28;20649;-73
2023/07/02 02:58:51;;;;;;;8.10;2.67;;;;;;;;;;4983354;28;20174;-73
2023/07/02 03:01:55;;;;;;;3.33;2.90;;;;;;;;;;4994402;28;20217;-73
2023/07/02 03:05:02;;;;;;;5.07;2.47;;;;;;;;;;4994513;28;20181;-73
2023/07/02 03:08:06;;;;;;;3.47;2.67;;;;;;;;;;4993867;28;20210;-73
2023/07/02 03:11:10;;;;;;;3.43;2.40;;;;;;;;;;4994729;28;20467;-73
2023/07/02 03:14:14;;;;;;;3.13;2.40;;;;;;;;;;4982477;28;20198;-73
2023/07/02 03:17:19;;;;;;;3.27;2.40;;;;;;;;;;4994042;28;20189;-72
2023/07/02 03:20:23;;;;;;;4.73;2.57;;;;;;;;;;4994600;28;20186;-73
2023/07/02 03:23:28;;;;;;;3.13;2.33;;;;;;;;;;4994881;28;20198;-73
2023/07/02 03:26:32;;;;;;;4.63;2.67;;;;;;;;;;4993647;28;20230;-73
2023/07/02 03:29:38;;;;;;;3.83;2.70;;;;;;;;;;4994412;28;20273;-73
2023/07/02 03:32:42;;;;;;;5.90;2.40;;;;;;;;;;5004950;28;20217;-73
2023/07/02 03:35:45;;;;;;;3.37;2.50;;;;;;;;;;4993833;28;20181;-73
2023/07/02 03:38:50;;;;;;;3.33;2.53;;;;;;;;;;4994366;28;20174;-73
2023/07/02 03:41:54;;;;;;;3.23;2.90;;;;;;;;;;5004739;28;20222;-73
2023/07/02 03:44:58;;;;;;;4.30;2.40;;;;;;;;;;4993697;28;20178;-73
2023/07/02 03:48:03;;;;;;;4.50;2.93;;;;;;;;;;4994447;28;20206;-73
2023/07/02 03:51:07;;;;;;;5.80;2.70;;;;;;;;;;5004683;28;20178;-73
2023/07/02 03:54:11;;;;;;;6.07;2.13;;;;;;;;;;4994020;28;20193;-73
2023/07/02 03:57:15;;;;;;;7.00;2.63;;;;;;;;;;4993514;28;20198;-73
2023/07/02 04:00:19;;;;;;;3.90;2.40;;;;;;;;;;4994818;28;20530;-73
2023/07/02 04:03:24;;;;;;;2.80;2.47;;;;;;;;;;4994241;28;20685;-73
2023/07/02 04:06:28;;;;;;;4.03;2.47;;;;;;;;;;4994966;28;20186;-73
2023/07/02 04:09:32;;;;;;;4.60;2.77;;;;;;;;;;5004751;28;20629;-72
2023/07/02 04:12:37;;;;;;;4.13;2.40;;;;;;;;;;4994244;28;20217;-73
2023/07/02 04:15:41;;;;;;;6.10;2.50;;;;;;;;;;4993752;28;20182;-73
2023/07/02 04:18:45;;;;;;;5.17;2.60;;;;;;;;;;4994544;28;20182;-73
2023/07/02 04:21:49;;;;;;;4.57;2.27;;;;;;;;;;4994090;28;20213;-72
2023/07/02 04:24:53;;;;;;;3.40;2.40;;;;;;;;;;5008343;28;20525;-72
2023/07/02 04:27:58;;;;;;;2.67;2.17;;;;;;;;;;4998189;28;20656;-72
2023/07/02 04:31:02;;;;;;;3.27;2.37;;;;;;;;;;4997996;28;20190;-72
2023/07/02 04:34:06;;;;;;;4.77;2.47;;;;;;;;;;4998063;28;20179;-73
2023/07/02 04:37:10;;;;;;;2.57;2.20;;;;;;;;;;4997070;28;20190;-73
2023/07/02 04:40:15;;;;;;;3.07;2.00;;;;;;;;;;4985812;28;20252;-73
2023/07/02 04:43:19;;;;;;;4.13;2.60;;;;;;;;;;4998519;28;20217;-73
2023/07/02 04:46:23;;;;;;;3.33;2.40;;;;;;;;;;4997951;28;20182;-72
2023/07/02 04:49:27;;;;;;;4.63;2.07;;;;;;;;;;4986295;28;20182;-73
2023/07/02 04:52:32;;;;;;;4.70;2.43;;;;;;;;;;4997684;28;20218;-72
2023/07/02 04:55:36;;;;;;;4.03;2.20;;;;;;;;;;5007728;28;20187;-73
2023/07/02 04:58:40;;;;;;;3.50;2.17;;;;;;;;;;4997031;28;20183;-73
2023/07/02 05:01:45;;;;;;;3.13;2.40;;;;;;;;;;5007717;28;20218;-73
2023/07/02 05:04:49;;;;;;;3.40;2.20;;;;;;;;;;5011378;28;20178;-73
2023/07/02 05:07:54;;;;;;;4.30;2.10;;;;;;;;;;5000405;28;20214;-72
2023/07/02 05:10:58;;;;;;;6.97;2.40;;;;;;;;;;5001475;28;20190;-73
2023/07/02 05:14:02;;;;;;;4.40;2.40;;;;;;;;;;5000090;28;20182;-73
2023/07/02 05:17:06;;;;;;;8.33;2.43;;;;;;;;;;4999934;28;20182;-73
2023/07/02 05:20:11;;;;;;;2.50;2.20;;;;;;;;;;5000443;28;20190;-73
2023/07/02 05:23:15;;;;;;;2.97;2.20;;;;;;;;;;4999876;28;20218;-73
2023/07/02 05:26:19;;;;;;;3.67;2.17;;;;;;;;;;4999345;28;20182;-73
2023/07/02 05:29:23;;;;;;;3.73;2.10;;;;;;;;;;4998898;28;20514;-73
2023/07/02 05:32:28;;;;;;;6.53;2.07;;;;;;;;;;4999169;28;20222;-73
2023/07/02 05:35:32;;;;;;;5.73;2.10;;;;;;;;;;4999122;28;20179;-73
2023/07/02 05:38:36;;;;;;;3.07;2.00;;;;;;;;;;4998752;28;20174;-73
2023/07/02 05:41:40;;;;;;;6.10;2.07;;;;;;;;;;4986877;28;20213;-73
2023/07/02 05:44:44;;;;;;;4.57;2.13;;;;;;;;;;4998421;28;20174;-72
2023/07/02 05:47:49;;;;;;;5.87;2.40;;;;;;;;;;4997319;28;20209;-73
2023/07/02 05:50:54;;;;;;;4.60;2.10;;;;;;;;;;5008508;28;20178;-73
2023/07/02 05:53:58;;;;;;;7.37;2.43;;;;;;;;;;4997041;28;20193;-73
2023/07/02 05:57:02;;;;;;;4.10;2.10;;;;;;;;;;4985614;28;20194;-73
2023/07/02 06:00:07;;;;;;;3.73;2.27;;;;;;;;;;5007719;28;20201;-73
2023/07/02 06:03:20;;;;;;;3.83;2.20;;;;;;;;;;4996048;28;20218;-73
2023/07/02 06:06:24;;;;;;;5.90;2.17;;;;;;;;;;5007738;28;20634;-72
2023/07/02 06:09:28;;;;;;;3.67;1.93;;;;;;;;;;4997081;28;20178;-72
2023/07/02 06:12:32;;;;;;;6.13;2.40;;;;;;;;;;4996906;28;20214;-73
2023/07/02 06:15:36;;;;;;;3.40;2.00;;;;;;;;;;4994785;28;20174;-73
2023/07/02 06:18:41;;;;;;;4.87;2.10;;;;;;;;;;4995543;28;20534;-72
2023/07/02 06:21:45;;;;;;;4.20;2.13;;;;;;;;;;4996485;28;20218;-73
2023/07/02 06:24:49;;;;;;;3.57;2.20;;;;;;;;;;5006659;28;20194;-72
2023/07/02 06:27:55;;;;;;;2.90;2.30;;;;;;;;;;4996443;28;20214;-73
2023/07/02 06:30:59;;;;;;;3.47;2.40;;;;;;;;;;4996247;28;20183;-73
2023/07/02 06:34:03;;;;;;;3.57;2.30;;;;;;;;;;4984371;28;20186;-73
2023/07/02 06:37:08;;;;;;;5.23;2.23;;;;;;;;;;4995215;28;20210;-73
2023/07/02 06:40:12;;;;;;;3.70;2.37;;;;;;;;;;4995467;28;20182;-73
2023/07/02 06:43:16;;;;;;;5.23;2.40;;;;;;;;;;4995804;28;20226;-73
2023/07/02 06:46:20;;;;;;;3.83;2.40;;;;;;;;;;4995885;28;20178;-73
2023/07/02 06:49:24;;;;;;;5.37;2.77;;;;;;;;;;4995309;28;20222;-72
2023/07/02 06:52:29;;;;;;;6.37;3.30;;;;;;;;;;4995546;28;20221;-73
2023/07/02 06:55:33;;;;;;;9.43;3.83;;;;;;;;;;4995928;28;20182;-73
2023/07/02 06:58:39;;;;;;;5.87;2.93;;;;;;;;;;4995853;28;20174;-73
2023/07/02 07:01:44;;;;;;;5.33;3.53;;;;;;;;;;4995479;28;20217;-73
2023/07/02 07:04:48;;;;;;;7.17;3.80;;;;;;;;;;4995654;28;20510;-73
2023/07/02 07:07:52;;;;;;;4.63;3.70;;;;;;;;;;4984217;28;20541;-73
2023/07/02 07:10:56;;;;;;;5.40;3.40;;;;;;;;;;4995224;28;20198;-73
2023/07/02 07:14:01;;;;;;;7.63;3.20;;;;;;;;;;4995311;28;20189;-72
2023/07/02 07:17:04;;;;;;;11.30;3.43;;;;;;;;;;4995578;28;20178;-73
2023/07/02 07:20:09;;;;;;;10.20;3.60;;;;;;;;;;4995059;28;20174;-72
2023/07/02 07:23:15;;;;;;;8.00;3.50;;;;;;;;;;4994344;28;20209;-72
2023/07/02 07:26:19;;;;;;;8.07;3.90;;;;;;;;;;4993809;28;20178;-72
2023/07/02 07:29:24;;;;;;;11.00;4.73;;;;;;;;;;4994164;28;20210;-73
2023/07/02 07:32:28;;;;;;;7.97;4.23;;;;;;;;;;4994729;28;20222;-73
2023/07/02 07:35:32;;;;;;;9.10;3.63;;;;;;;;;;4994789;28;20186;-73
2023/07/02 07:38:36;;;;;;;5.30;3.67;;;;;;;;;;4994899;28;20182;-74
2023/07/02 07:41:41;;;;;;;8.77;4.47;;;;;;;;;;4993657;28;20221;-73
2023/07/02 07:44:46;;;;;;;7.00;3.80;;;;;;;;;;4994448;28;20633;-74
2023/07/02 07:47:50;;;;;;;8.07;4.57;;;;;;;;;;4994352;28;20182;-73
2023/07/02 07:50:54;;;;;;;8.60;4.30;;;;;;;;;;4994498;28;20186;-72
2023/07/02 07:53:58;;;;;;;8.53;4.80;;;;;;;;;;4994404;28;20178;-73
2023/07/02 07:57:06;;;;;;;7.90;4.17;;;;;;;;;;4993754;28;20178;-73
2023/07/02 08:00:11;;;;;;;9.13;4.70;;;;;;;;;;4994520;28;20212;-73
2023/07/02 08:03:22;;;;;;;8.63;4.10;;;;;;;;;;4994023;28;20225;-72
2023/07/02 08:06:27;;;;;;;6.80;4.20;;;;;;;;;;4994446;28;20534;-73
2023/07/02 08:09:31;;;;;;;9.13;4.50;;;;;;;;;;4971210;28;20214;-73
2023/07/02 08:12:36;;;;;;;8.03;4.33;;;;;;;;;;4994022;28;20221;-73
2023/07/02 08:15:40;;;;;;;9.37;4.63;;;;;;;;;;4994385;28;20182;-73
2023/07/02 08:18:44;;;;;;;6.50;4.33;;;;;;;;;;4982329;28;20193;-73
2023/07/02 08:21:48;;;;;;;8.90;5.20;;;;;;;;;;4993853;28;20217;-73
2023/07/02 08:24:52;;;;;;;8.40;4.70;;;;;;;;;;4993433;28;20181;-73
2023/07/02 08:27:57;;;;;;;11.50;5.00;;;;;;;;;;4994092;28;20178;-73
2023/07/02 08:31:01;;;;;;;10.77;5.53;;;;;;;;;;4994005;28;20195;-73
2023/07/02 08:34:05;;;;;;;11.90;5.63;;;;;;;;;;4994183;28;20178;-73
2023/07/02 08:37:09;;;;;;;10.53;6.33;;;;;;;;;;4996658;23;20208;-74
2023/07/02 08:40:18;;;;;;;10.20;6.07;;;;;;;;;;4978006;28;20711;-70
2023/07/02 08:43:25;;;;;;;10.47;6.40;;;;;;;;;;4978655;28;20585;-70
2023/07/02 08:46:29;;;;;;;10.97;6.03;;;;;;;;;;4978307;28;20534;-70
2023/07/02 08:49:33;;;;;;;12.10;6.73;;;;;;;;;;4978073;28;20215;-71
2023/07/02 08:52:38;;;;;;;13.90;7.20;;;;;;;;;;4977196;28;20222;-71
2023/07/02 08:55:42;;;;;;;11.10;7.13;;;;;;;;;;4978420;28;20183;-71
2023/07/02 08:58:46;;;;;;;9.77;6.37;;;;;;;;;;4977660;28;20182;-72
2023/07/02 09:01:52;;;;;;;12.07;7.20;;;;;;;;;;4977335;28;20219;-72
2023/07/02 09:05:00;;;;;;;11.87;7.10;;;;;;;;;;4977557;28;20565;-73
2023/07/02 09:08:04;;;;;;;12.27;6.57;;;;;;;;;;4977745;28;20194;-73
2023/07/02 09:11:16;;;;;;;13.37;6.70;;;;;;;;;;4977374;28;20210;-72
2023/07/02 09:14:30;;;;;;;14.90;6.40;;;;;;;;;;4976562;28;20198;-71
2023/07/02 09:17:36;;;;;;;13.37;6.83;;;;;;;;;;4977770;28;20191;-71
2023/07/02 09:20:40;;;;;;;12.77;6.93;;;;;;;;;;4977792;28;20202;-71
2023/07/02 09:23:44;;;;;;;9.83;6.17;;;;;;;;;;4977237;28;20199;-71
2023/07/02 09:26:56;;;;;;;13.97;6.60;;;;;;;;;;4977487;28;20649;-71
2023/07/02 09:30:15;;;;;;;10.87;6.53;;;;;;;;;;4977381;28;20209;-71
2023/07/02 09:33:20;;;;;;;11.93;7.07;;;;;;;;;;4976418;28;20230;-73
2023/07/02 09:36:24;;;;;;;10.57;5.90;;;;;;;;;;4976806;28;20190;-71
2023/07/02 09:39:30;;;;;;;11.53;6.53;;;;;;;;;;4977259;28;20186;-71
2023/07/02 09:42:37;;;;;;;9.43;6.53;;;;;;;;;;4976217;28;20231;-73
2023/07/02 09:45:47;;;;;;;12.33;6.93;;;;;;;;;;4977251;28;20189;-71
2023/07/02 09:48:50;;;;;;;10.80;6.90;;;;;;;;;;4975635;28;20226;-71
2023/07/02 09:51:54;;;;;;;13.47;7.13;;;;;;;;;;4976901;28;20237;-71
2023/07/02 09:54:59;;;;;;;13.20;7.00;;;;;;;;;;4976119;28;20188;-71
2023/07/02 09:58:03;;;;;;;11.17;7.97;;;;;;;;;;4976498;28;20183;-73
2023/07/02 10:01:07;;;;;;;13.93;7.57;;;;;;;;;;4976496;28;20189;-73
2023/07/02 10:04:13;;;;;;;10.73;7.23;;;;;;;;;;4975953;28;20201;-75
2023/07/02 10:07:33;;;;;;;11.37;7.30;;;;;;;;;;4964808;28;20212;-72
2023/07/02 10:10:37;;;;;;;11.03;6.77;;;;;;;;;;4975984;28;20214;-72
2023/07/02 10:13:41;;;;;;;13.93;8.13;;;;;;;;;;4976949;28;20683;-72
2023/07/02 10:16:55;;;;;;;18.53;8.73;;;;;;;;;;4977018;28;20191;-73
2023/07/02 10:20:11;;;;;;;10.33;7.50;;;;;;;;;;4976479;28;20652;-73
2023/07/02 10:23:16;;;;;;;11.23;6.32;;;;;;;;;;4976455;28;20257;-72
2023/07/02 10:26:20;;;;;;;12.65;6.60;;;;;;;;;;4976364;28;20184;-72
2023/07/02 10:29:26;;;;;;;9.20;6.35;;;;;;;;;;4975687;28;20214;-72
2023/07/02 10:32:33;;;;;;;11.13;6.35;;;;;;;;;;4976414;28;20688;-72
2023/07/02 10:35:37;;;;;;;12.07;6.67;;;;;;;;;;4975477;28;20660;-71
2023/07/02 10:38:41;;;;;;;13.70;6.93;;;;;;;;;;4976058;28;20217;-72
2023/07/02 10:41:45;;;;;;;11.97;7.40;;;;;;;;;;4975013;28;20228;-72
2023/07/02 10:44:51;;;;;;;12.97;6.73;;;;;;;;;;4975808;28;20188;-73
2023/07/02 10:47:56;;;;;;;10.23;6.90;;;;;;;;;;4975441;28;20181;-73
2023/07/02 10:51:11;;;;;;;9.50;5.90;;;;;;;;;;4976144;28;20182;-73
2023/07/02 10:54:15;;;;;;;10.95;6.20;;;;;;;;;;4975302;28;20515;-73
2023/07/02 10:57:22;;;;;;;13.02;6.57;;;;;;;;;;4975530;28;20187;-72
2023/07/02 11:00:26;;;;;;;10.38;5.97;;;;;;;;;;4975360;28;20172;-73
2023/07/02 11:03:30;;;;;;;11.32;6.82;;;;;;;;;;4974632;28;20178;-73
2023/07/02 11:06:35;;;;;;;9.73;6.40;;;;;;;;;;4975601;28;20178;-73
2023/07/02 11:09:39;;;;;;;9.02;6.25;;;;;;;;;;4974747;28;20208;-71
2023/07/02 11:12:43;;;;;;;12.98;6.50;;;;;;;;;;4974472;28;20228;-73
2023/07/02 11:15:47;;;;;;;11.02;6.22;;;;;;;;;;4974972;28;20183;-73
2023/07/02 11:19:08;;;;;;;8.80;6.20;;;;;;;;;;4975082;28;20200;-72
2023/07/02 11:22:12;;;;;;;11.10;6.40;;;;;;;;;;4975323;28;20225;-72
2023/07/02 11:25:21;;;;;;;8.40;5.65;;;;;;;;;;4974331;28;20189;-72
2023/07/02 11:28:29;;;;;;;25.88;6.38;;;;;;;;;;4974879;28;20186;-72
2023/07/02 11:31:33;;;;;;;10.20;6.20;;;;;;;;;;4974828;28;20224;-72
2023/07/02 11:34:39;;;;;;;9.95;6.38;;;;;;;;;;4974225;28;20212;-72
2023/07/02 11:37:43;;;;;;;10.88;6.13;;;;;;;;;;4975063;28;20207;-72
2023/07/02 11:40:48;;;;;;;7.70;5.47;;;;;;;;;;4974742;28;20189;-72
2023/07/02 11:43:52;;;;;;;8.52;5.55;;;;;;;;;;4973858;28;20204;-72
2023/07/02 11:46:57;;;;;;;10.00;5.90;;;;;;;;;;4974771;28;20198;-72
2023/07/02 11:50:00;;;;;;;10.23;5.88;;;;;;;;;;4974612;28;20219;-72
2023/07/02 11:53:04;;;;;;;8.25;5.50;;;;;;;;;;4973712;28;20232;-72
2023/07/02 11:56:09;;;;;;;10.45;6.45;;;;;;;;;;4974510;28;20181;-72
2023/07/02 11:59:14;;;;;;;9.68;5.55;;;;;;;;;;4973925;28;20179;-72
2023/07/02 12:02:18;;;;;;;9.80;6.00;;;;;;;;;;4973502;28;20220;-72
2023/07/02 12:05:22;;;;;;;8.77;5.82;;;;;;;;;;4974895;28;20183;-72
2023/07/02 12:08:26;;;;;;;10.38;6.30;;;;;;;;;;4974612;28;20186;-73
2023/07/02 12:11:30;;;;;;;11.68;5.82;;;;;;;;;;4974138;28;20224;-73
2023/07/02 12:14:35;;;;;;;8.05;5.80;;;;;;;;;;4974500;28;20228;-73
2023/07/02 12:17:38;;;;;;;7.70;5.50;;;;;;;;;;4974310;28;20202;-73
2023/07/02 12:20:43;;;;;;;9.35;5.35;;;;;;;;;;4974661;28;20176;-73
2023/07/02 12:23:47;;;;;;;10.25;5.40;;;;;;;;;;4974484;28;20635;-73
2023/07/02 12:26:51;;;;;;;8.13;5.38;;;;;;;;;;4974665;28;20197;-73
2023/07/02 12:29:56;;;;;;;7.30;5.53;;;;;;;;;;4974063;28;20211;-72
2023/07/02 12:33:00;;;;;;;10.85;5.63;;;;;;;;;;4974285;28;20220;-72
2023/07/02 12:36:04;;;;;;;8.38;5.75;;;;;;;;;;4974552;28;20190;-72
2023/07/02 12:39:08;;;;;;;8.45;5.45;;;;;;;;;;4973475;28;20204;-72
2023/07/02 12:42:12;;;;;;;8.38;5.80;;;;;;;;;;4974234;28;20259;-72
2023/07/02 12:45:17;;;;;;;9.20;5.85;;;;;;;;;;4974700;28;20522;-72
2023/07/02 12:48:20;;;;;;;8.65;5.93;;;;;;;;;;4974274;28;20183;-73
2023/07/02 12:51:25;;;;;;;7.10;5.63;;;;;;;;;;4973809;28;20234;-73
2023/07/02 12:54:29;;;;;;;10.23;6.55;;;;;;;;;;4973479;28;20629;-71
2023/07/02 12:57:34;;;;;;;11.20;6.70;;;;;;;;;;4974009;28;20193;-71
2023/07/02 13:00:38;;;;;;;9.77;6.45;;;;;;;;;;4974392;28;20656;-71
2023/07/02 13:03:47;;;;;;;12.75;6.90;;;;;;;;;;4962397;28;20641;-71
2023/07/02 13:06:51;;;;;;;12.27;7.35;;;;;;;;;;4962171;28;20215;-71
2023/07/02 13:09:55;;;;;;;9.77;7.20;;;;;;;;;;4973229;28;20324;-70
2023/07/02 13:12:59;;;;;;;13.05;7.72;;;;;;;;;;4973874;28;20227;-71
2023/07/02 13:16:04;;;;;;;12.85;7.85;;;;;;;;;;4974258;28;20190;-71
2023/07/02 13:19:08;;;;;;;11.45;7.50;;;;;;;;;;4973245;28;20541;-71
2023/07/02 13:22:12;;;;;;;11.90;8.45;;;;;;;;;;4973966;28;20221;-71
2023/07/02 13:25:16;;;;;;;14.00;8.52;;;;;;;;;;4977191;28;20530;-71
2023/07/02 13:28:21;;;;;;;15.80;9.52;;;;;;;;;;4977101;28;20184;-71
2023/07/02 13:31:25;;;;;;;13.57;9.48;;;;;;;;;;4976933;28;20228;-71
2023/07/02 13:34:29;;;;;;;14.10;10.55;;;;;;;;;;4977348;28;20194;-71
2023/07/02 13:37:33;;;;;;;13.07;10.52;;;;;;;;;;4977296;28;20219;-71
2023/07/02 13:40:37;;;;;;;13.80;10.75;;;;;;;;;;4976855;28;20191;-71
2023/07/02 13:43:41;;;;;;;15.60;11.20;;;;;;;;;;4976338;28;20282;-71
2023/07/02 13:46:47;;;;;;;16.23;11.30;;;;;;;;;;4976005;28;20185;-71
2023/07/02 13:49:52;;;;;;;16.35;10.32;;;;;;;;;;4977500;28;20688;-71
2023/07/02 13:52:56;;;;;;;17.13;10.75;;;;;;;;;;4976916;28;20228;-71
2023/07/02 13:56:00;;;;;;;17.13;10.90;;;;;;;;;;4976819;28;20209;-71
2023/07/02 13:59:04;;;;;;;16.95;11.20;;;;;;;;;;4977261;28;20192;-71
2023/07/02 14:02:09;;;;;;;14.82;10.65;;;;;;;;;;4975653;28;20216;-71
2023/07/02 14:05:13;;;;;;;18.80;11.50;;;;;;;;;;4976533;28;20206;-71
2023/07/02 14:08:17;;;;;;;15.82;11.40;;;;;;;;;;4976416;28;20207;-71
2023/07/02 14:11:23;;;;;;;17.42;10.98;;;;;;;;;;4976477;28;20233;-71
2023/07/02 14:14:27;;;;;;;16.40;12.32;;;;;;;;;;4976942;28;20649;-71
2023/07/02 14:17:31;;;;;;;19.08;11.80;;;;;;;;;;4976467;28;20197;-71
2023/07/02 14:20:35;;;;;;;17.92;11.70;;;;;;;;;;4976531;28;20206;-71
2023/07/02 14:23:39;;;;;;;17.10;12.27;;;;;;;;;;4976504;28;20188;-71
2023/07/02 14:26:44;;;;;;;17.35;11.75;;;;;;;;;;4975450;28;20192;-71
2023/07/02 14:29:48;;;;;;;18.35;12.82;;;;;;;;;;4976006;28;20209;-71
2023/07/02 14:32:52;;;;;;;19.80;12.52;;;;;;;;;;4976196;28;20226;-70
2023/07/02 14:35:57;;;;;;;18.90;11.70;;;;;;;;;;4975264;28;20186;-71
2023/07/02 14:39:01;;;;;;;17.27;12.68;;;;;;;;;;4975838;28;20227;-71
2023/07/02 14:42:06;;;;;;;19.10;13.00;;;;;;;;;;4976169;28;20221;-71
2023/07/02 14:45:11;;;;;;;21.38;14.00;;;;;;;;;;4976497;28;20683;-71
2023/07/02 14:48:15;;;;;;;19.42;13.75;;;;;;;;;;4976012;28;20211;-71
2023/07/02 14:51:20;;;;;;;18.20;13.40;;;;;;;;;;4975580;28;20226;-71
2023/07/02 14:54:24;;;;;;;22.92;14.45;;;;;;;;;;4975904;28;20187;-71
2023/07/02 14:57:28;;;;;;;19.67;14.07;;;;;;;;;;4997435;23;20339;-72
2023/07/02 15:00:33;;;;;;;21.48;15.13;;;;;;;;;;5014741;28;20730;-72
2023/07/02 15:03:37;;;;;;;20.00;15.00;;;;;;;;;;4995385;28;20193;-72
2023/07/02 15:06:41;;;;;;;20.70;14.80;;;;;;;;;;4994619;28;20191;-71
2023/07/02 15:09:45;;;;;;;21.67;15.43;;;;;;;;;;4984085;28;20189;-72
2023/07/02 15:12:49;;;;;;;20.17;14.98;;;;;;;;;;4995191;28;20224;-73
2023/07/02 15:15:54;;;;;;;22.02;15.68;;;;;;;;;;4984171;28;20208;-73
2023/07/02 15:18:58;;;;;;;20.17;14.68;;;;;;;;;;4996114;28;20211;-73
2023/07/02 15:22:02;;;;;;;20.95;14.77;;;;;;;;;;4995798;28;20216;-74
2023/07/02 15:25:07;;;;;;;19.83;14.52;;;;;;;;;;4995298;28;20539;-74
2023/07/02 15:28:11;;;;;;;22.25;14.98;;;;;;;;;;4995259;28;20203;-73
2023/07/02 15:31:15;;;;;;;20.48;15.05;;;;;;;;;;4995234;28;20218;-72
2023/07/02 15:34:19;;;;;;;20.65;14.52;;;;;;;;;;4995742;28;20187;-75
2023/07/02 15:37:23;;;;;;;22.25;15.80;;;;;;;;;;4994581;28;20192;-73
2023/07/02 15:40:28;;;;;;;19.70;14.35;;;;;;;;;;4995048;28;20190;-73
2023/07/02 15:43:33;;;;;;;20.30;15.00;;;;;;;;;;4993981;28;20188;-73
2023/07/02 15:46:37;;;;;;;22.17;14.32;;;;;;;;;;4982406;28;20197;-74
2023/07/02 15:49:42;;;;;;;22.98;15.00;;;;;;;;;;4994774;28;20196;-73
2023/07/02 15:52:46;;;;;;;21.65;15.40;;;;;;;;;;4992465;28;20220;-74
2023/07/02 15:55:55;;;;;;;23.80;16.25;;;;;;;;;;4993478;28;20195;-73
2023/07/02 15:59:00;;;;;;;21.77;16.20;;;;;;;;;;4993728;28;20222;-73
2023/07/02 16:02:05;;;;;;;23.35;16.20;;;;;;;;;;4982694;28;20228;-72
2023/07/02 16:05:10;;;;;;;22.60;16.55;;;;;;;;;;4983250;28;20190;-73
2023/07/02 16:08:15;;;;;;;25.50;16.67;;;;;;;;;;4994043;28;20185;-73
2023/07/02 16:11:19;;;;;;;24.83;16.58;;;;;;;;;;4994049;28;20217;-73
2023/07/02 16:14:23;;;;;;;27.23;17.17;;;;;;;;;;4993253;28;20192;-74
2023/07/02 16:17:27;;;;;;;24.15;16.55;;;;;;;;;;4993885;28;20208;-75
2023/07/02 16:20:31;;;;;;;24.98;15.15;;;;;;;;;;4993188;28;20190;-74
2023/07/02 16:23:36;;;;;;;20.37;14.37;;;;;;;;;;4993664;28;20197;-75
2023/07/02 16:26:41;;;;;;;24.67;16.00;;;;;;;;;;4982200;28;20686;-75
2023/07/02 16:29:47;;;;;;;22.58;15.32;;;;;;;;;;4994397;28;20201;-75
2023/07/02 16:32:51;;;;;;;22.73;16.90;;;;;;;;;;4993987;28;20217;-75
2023/07/02 16:35:55;;;;;;;23.25;16.63;;;;;;;;;;4993392;28;20668;-75
2023/07/02 16:38:59;;;;;;;22.17;15.48;;;;;;;;;;4982111;28;20210;-75
2023/07/02 16:42:04;;;;;;;22.23;15.00;;;;;;;;;;4993741;28;20319;-75
2023/07/02 16:45:08;;;;;;;24.17;15.88;;;;;;;;;;4993157;28;20189;-75
2023/07/02 16:48:12;;;;;;;23.33;15.67;;;;;;;;;;4992713;28;20191;-75
2023/07/02 16:51:16;;;;;;;21.58;15.23;;;;;;;;;;4993546;28;20221;-75
2023/07/02 16:54:22;;;;;;;22.23;16.33;;;;;;;;;;4992708;28;20196;-75
2023/07/02 16:57:26;;;;;;;25.67;16.97;;;;;;;;;;4993530;28;20206;-75
2023/07/02 17:00:30;;;;;;;25.40;17.23;;;;;;;;;;4997137;28;20193;-75
2023/07/02 17:03:35;;;;;;;25.20;17.60;;;;;;;;;;4985521;28;20195;-75
2023/07/02 17:06:41;;;;;;;27.30;18.13;;;;;;;;;;4997404;28;20211;-74
2023/07/02 17:09:46;;;;;;;23.20;16.87;;;;;;;;;;4996420;28;20193;-75
2023/07/02 17:12:50;;;;;;;26.23;18.13;;;;;;;;;;4997150;28;20718;-75
2023/07/02 17:15:54;;;;;;;24.27;17.20;;;;;;;;;;4996789;28;20186;-75
2023/07/02 17:19:01;;;;;;;25.40;18.17;;;;;;;;;;4997238;28;20187;-76
2023/07/02 17:22:08;;;;;;;27.63;18.93;;;;;;;;;;4995980;28;20230;-75
2023/07/02 17:25:12;;;;;;;28.13;19.33;;;;;;;;;;4996417;28;20225;-75
2023/07/02 17:28:17;;;;;;;33.20;19.83;;;;;;;;;;4997291;28;20195;-75
2023/07/02 17:31:21;;;;;;;28.73;18.07;;;;;;;;;;4997229;28;20219;-75
2023/07/02 17:34:27;;;;;;;31.20;18.67;;;;;;;;;;4997880;28;20195;-75
2023/07/02 17:37:31;;;;;;;26.83;17.67;;;;;;;;;;5001399;28;20188;-75
2023/07/02 17:40:40;;;;;;;25.37;17.37;;;;;;;;;;4999921;28;20193;-74
2023/07/02 17:43:45;;;;;;;27.30;17.23;;;;;;;;;;5001194;28;20542;-74
2023/07/02 17:46:50;;;;;;;26.43;18.83;;;;;;;;;;4999840;28;20198;-74
2023/07/02 17:49:54;;;;;;;23.93;16.97;;;;;;;;;;5000798;28;20181;-74
2023/07/02 17:52:58;;;;;;;21.83;15.83;;;;;;;;;;4987051;28;20232;-74
2023/07/02 17:56:03;;;;;;;21.50;15.23;;;;;;;;;;4985812;28;20188;-73
2023/07/02 17:59:08;;;;;;;25.03;15.23;;;;;;;;;;4996272;28;20200;-74
2023/07/02 18:02:14;;;;;;;19.83;13.77;;;;;;;;;;4993314;28;20572;-74
2023/07/02 18:05:21;;;;;;;21.17;13.90;;;;;;;;;;4996688;28;20645;-75
2023/07/02 18:08:25;;;;;;;21.77;14.33;;;;;;;;;;4996413;28;20545;-73
2023/07/02 18:11:29;;;;;;;21.53;14.20;;;;;;;;;;4996446;28;20233;-74
2023/07/02 18:14:33;;;;;;;21.00;14.07;;;;;;;;;;4984828;28;20185;-74
2023/07/02 18:17:37;;;;;;;21.47;14.23;;;;;;;;;;4996717;28;20210;-73